createdAt,value
2022-10-01T01:10:21.778Z,80.9
2022-10-01T01:30:21.738Z,85.2
2022-10-01T01:50:21.720Z,87.3
2022-10-01T02:10:21.690Z,89.2
2022-10-01T02:30:21.655Z,91.1
2022-10-01T02:50:21.626Z,92.8
2022-10-01T03:10:21.595Z,93.3
2022-10-01T03:30:21.569Z,93.8
2022-10-01T03:50:21.539Z,94.7
2022-10-01T04:10:21.510Z,95.8
2022-10-01T04:30:21.511Z,95.8
2022-10-01T04:50:21.449Z,96
2022-10-01T05:10:21.425Z,95.8
2022-10-01T05:30:21.443Z,96.5
2022-10-01T05:50:21.363Z,97.1
2022-10-01T06:30:21.298Z,98.7
2022-10-01T07:10:21.240Z,98.9
2022-10-01T07:30:21.219Z,98.6
2022-10-01T07:50:21.183Z,98.6
2022-10-01T08:10:21.154Z,98.5
2022-10-01T10:10:24.737Z,94.4
2022-10-01T10:30:20.942Z,93.9
2022-10-01T11:10:20.896Z,89.1
2022-10-01T11:30:20.835Z,87.5
2022-10-01T11:50:20.816Z,90.2
2022-10-01T12:30:20.758Z,99.5
2022-10-01T12:50:20.709Z,100
2022-10-01T13:10:20.666Z,100
2022-10-01T13:30:20.650Z,100
2022-10-01T13:50:20.610Z,100
2022-10-01T14:10:20.576Z,100
2022-10-01T14:30:20.566Z,100
2022-10-01T14:50:20.511Z,100
2022-10-01T15:10:20.477Z,94.6
2022-10-01T15:30:20.438Z,86.2
2022-10-01T15:50:20.409Z,83.8
2022-10-01T16:30:20.352Z,79.8
2022-10-01T17:30:20.264Z,84.7
2022-10-01T17:50:20.214Z,81.6
2022-10-01T18:30:20.164Z,83.3
2022-10-01T19:10:20.089Z,85.1
2022-10-01T19:30:20.055Z,85.4
2022-10-01T21:10:19.906Z,91.3
2022-10-01T21:30:19.868Z,91.3
2022-10-01T21:50:19.849Z,91.2
2022-10-01T22:30:19.780Z,91.8
2022-10-01T23:10:19.716Z,93.1
2022-10-01T23:30:19.687Z,92.9
